Time;durP1;ratioP1;P1;durP2;ratioP2;P2;SDS_P1;SDS_P2;PMS_P1;PMS_P2;Temp;Humidity;BMP_temperature;BMP_pressure;BME280_temperature;BME280_humidity;BME280_pressure;Samples;Min_cycle;Max_cycle;Signal;HPM_P1;HPM_P2
2022/04/01 00:01:16;;;;;;;0.20;0.20;;;;;;;20.19;36.47;99656.78;5140783;27;20521;-37
2022/04/01 00:03:42;;;;;;;0.20;0.20;;;;;;;20.19;36.30;99662.31;5143681;27;20393;-33
2022/04/01 00:06:08;;;;;;;0.20;0.20;;;;;;;20.19;36.64;99665.09;5136723;27;20047;-33
2022/04/01 00:08:33;;;;;;;0.20;0.20;;;;;;;20.17;36.54;99659.88;5143970;27;20042;-37
2022/04/01 00:10:59;;;;;;;0.20;0.20;;;;;;;20.17;36.31;99667.38;5138378;27;20446;-34
2022/04/01 00:13:25;;;;;;;0.20;0.20;;;;;;;20.17;36.55;99664.59;5145445;27;20138;-33
2022/04/01 00:15:50;;;;;;;0.20;0.20;;;;;;;20.17;36.41;99667.38;5145394;27;20038;-35
2022/04/01 00:18:16;;;;;;;0.20;0.20;;;;;;;20.17;36.29;99672.91;5140267;27;20397;-34
2022/04/01 00:20:42;;;;;;;0.20;0.20;;;;;;;20.16;36.69;99669.28;5136863;27;20046;-37
2022/04/01 00:23:07;;;;;;;0.20;0.20;;;;;;;20.17;36.53;99678.41;5138889;27;20039;-36
2022/04/01 00:25:33;;;;;;;0.20;0.20;;;;;;;20.16;36.37;99674.81;5135876;27;20039;-36
2022/04/01 00:27:59;;;;;;;0.20;0.20;;;;;;;20.15;36.37;99667.66;5134087;27;20047;-36
2022/04/01 00:30:24;;;;;;;0.20;0.20;;;;;;;20.15;36.21;99675.97;5138833;27;20035;-37
2022/04/01 00:32:50;;;;;;;0.20;0.20;;;;;;;20.15;36.47;99672.38;5136344;27;20138;-34
2022/04/01 00:35:16;;;;;;;0.20;0.20;;;;;;;20.15;36.33;99675.16;5141046;27;20043;-34
2022/04/01 00:37:42;;;;;;;0.20;0.20;;;;;;;20.14;36.56;99668.81;5139240;27;20066;-37
2022/04/01 00:40:10;;;;;;;0.20;0.20;;;;;;;20.14;36.38;99674.34;5137946;27;20047;-33
2022/04/01 00:42:36;;;;;;;;;;;;;;;20.16;36.45;99674.00;5144079;27;20074;-38
2022/04/01 00:45:02;;;;;;;0.20;0.20;;;;;;;20.14;36.39;99676.28;5140279;27;20693;-37
2022/04/01 00:47:27;;;;;;;0.20;0.20;;;;;;;20.14;36.49;99679.88;5136331;27;20082;-33
2022/04/01 00:49:55;;;;;;;0.20;0.20;;;;;;;20.13;36.41;99689.28;5137358;27;20049;-34
2022/04/01 00:52:22;;;;;;;0.20;0.20;;;;;;;20.14;36.37;99690.09;5133790;27;20578;-35
2022/04/01 00:54:49;;;;;;;0.20;0.20;;;;;;;20.13;36.24;99694.81;5127122;27;20570;-35
2022/04/01 00:57:15;;;;;;;0.20;0.20;;;;;;;20.13;36.30;99700.34;5119905;27;20134;-34
2022/04/01 00:59:42;;;;;;;0.20;0.20;;;;;;;20.13;36.30;99699.53;5140337;27;20043;-35
2022/04/01 01:02:08;;;;;;;0.20;0.20;;;;;;;20.13;36.55;99697.59;5136289;27;20097;-35
2022/04/01 01:04:34;;;;;;;0.20;0.20;;;;;;;20.12;36.50;99698.72;5120913;27;20111;-36
2022/04/01 01:07:01;;;;;;;0.20;0.20;;;;;;;20.13;36.55;99702.31;5117488;27;20485;-34
2022/04/01 01:09:26;;;;;;;0.20;0.20;;;;;;;20.13;36.32;99699.53;5135712;27;20474;-33
2022/04/01 01:11:53;;;;;;;0.20;0.20;;;;;;;20.13;36.55;99702.31;5121547;27;20134;-36
2022/04/01 01:14:30;;;;;;;0.20;0.20;;;;;;;20.12;36.46;99698.72;5109884;27;20125;-37
2022/04/01 01:16:57;;;;;;;0.20;0.20;;;;;;;20.12;36.88;99709.78;5116126;27;20142;-34
2022/04/01 01:19:23;;;;;;;0.10;0.10;;;;;;;20.12;36.28;99704.25;5105826;27;21184;-33
2022/04/01 01:21:51;;;;;;;0.20;0.20;;;;;;;20.11;36.26;99705.34;5136471;27;20036;-37
2022/04/01 01:24:17;;;;;;;0.20;0.20;;;;;;;20.11;36.42;99718.38;5119479;27;20123;-34
2022/04/01 01:26:48;;;;;;;0.20;0.20;;;;;;;20.11;36.33;99707.31;5136403;27;20490;-35
2022/04/01 01:29:19;;;;;;;0.20;0.20;;;;;;;20.11;36.64;99716.41;5143482;27;20077;-36
2022/04/01 01:31:46;;;;;;;0.20;0.20;;;;;;;20.10;36.32;99700.97;5140489;27;20070;-34
2022/04/01 01:34:11;;;;;;;0.20;0.20;;;;;;;20.11;36.40;99705.34;5122694;27;20366;-35
2022/04/01 01:36:37;;;;;;;0.20;0.20;;;;;;;20.10;36.43;99714.78;5116891;27;20040;-36
2022/04/01 01:39:04;;;;;;;0.20;0.20;;;;;;;20.11;36.34;99715.59;5103877;27;20469;-33
2022/04/01 01:41:30;;;;;;;0.20;0.20;;;;;;;20.10;36.32;99711.22;5115305;27;20116;-36
2022/04/01 01:43:55;;;;;;;0.20;0.20;;;;;;;20.09;36.48;99715.13;5139132;27;20042;-39
2022/04/01 01:46:21;;;;;;;0.20;0.20;;;;;;;20.10;36.47;99716.75;5121035;27;20058;-37
2022/04/01 01:48:47;;;;;;;0.20;0.20;;;;;;;20.10;36.27;99719.50;5136983;27;20063;-34
2022/04/01 01:56:44;;;;;;;0.20;0.20;;;;;;;20.09;36.23;99727.00;5119879;27;20569;-36
2022/04/01 01:59:11;;;;;;;0.20;0.20;;;;;;;20.09;36.28;99723.41;5136001;27;20134;-37
2022/04/01 02:01:38;;;;;;;0.20;0.20;;;;;;;20.09;36.24;99726.19;5135145;27;20074;-36
2022/04/01 02:04:04;;;;;;;0.20;0.20;;;;;;;20.08;36.47;99721.75;5137271;27;20413;-35
2022/04/01 02:06:30;;;;;;;0.20;0.20;;;;;;;20.08;36.29;99724.53;5138446;27;20050;-33
2022/04/01 02:08:56;;;;;;;0.20;0.20;;;;;;;20.07;36.46;99736.72;5121696;27;20099;-33
2022/04/01 02:11:22;;;;;;;0.20;0.20;;;;;;;20.08;36.73;99728.13;5136661;27;20046;-34
2022/04/01 02:13:48;;;;;;;0.20;0.20;;;;;;;20.08;36.33;99721.75;5136172;27;20092;-35
2022/04/01 02:16:14;;;;;;;0.20;0.20;;;;;;;20.07;36.53;99720.13;5142218;27;20066;-35
2022/04/01 02:18:41;;;;;;;0.20;0.20;;;;;;;20.07;36.43;99723.72;5140699;27;20394;-37
2022/04/01 02:21:15;;;;;;;0.20;0.20;;;;;;;20.06;36.58;99727.63;5135189;27;20063;-34
2022/04/01 02:23:43;;;;;;;0.20;0.20;;;;;;;20.06;36.34;99724.84;5139464;27;20078;-34
2022/04/01 02:26:09;;;;;;;0.20;0.20;;;;;;;20.06;36.52;99735.91;5119189;27;20055;-38
2022/04/01 02:28:35;;;;;;;0.20;0.20;;;;;;;20.07;36.27;99743.06;5141719;27;20134;-32
2022/04/01 02:31:01;;;;;;;0.20;0.20;;;;;;;20.06;36.42;99733.13;5119516;27;21605;-37
2022/04/01 02:33:27;;;;;;;0.20;0.20;;;;;;;20.05;36.53;99737.84;5137060;27;20085;-36
2022/04/01 02:35:57;;;;;;;0.20;0.20;;;;;;;20.05;36.28;99746.16;5140910;27;20133;-33
2022/04/01 02:38:25;;;;;;;0.20;0.20;;;;;;;20.05;36.65;99746.16;5138379;27;20078;-33
2022/04/01 02:40:53;;;;;;;0.20;0.20;;;;;;;20.04;36.44;99747.28;5138770;27;20171;-37
2022/04/01 02:43:21;;;;;;;0.20;0.20;;;;;;;20.04;36.62;99744.53;5114319;27;20517;-34
2022/04/01 02:45:48;;;;;;;0.20;0.20;;;;;;;20.05;36.66;99750.84;5122346;27;20550;-36
2022/04/01 02:48:14;;;;;;;0.20;0.20;;;;;;;20.04;36.67;99761.09;5124453;27;20416;-33
2022/04/01 02:50:43;;;;;;;0.20;0.20;;;;;;;20.05;36.72;99761.91;5136135;27;20043;-34
2022/04/01 02:53:09;;;;;;;0.20;0.20;;;;;;;20.03;36.64;99759.47;5118175;27;20246;-36
2022/04/01 02:55:35;;;;;;;0.20;0.20;;;;;;;20.04;36.58;99766.63;5124394;27;20093;-35
2022/04/01 02:58:00;;;;;;;0.20;0.20;;;;;;;20.03;36.28;99765.00;5140918;27;20481;-34
2022/04/01 03:00:26;;;;;;;0.20;0.20;;;;;;;20.03;36.78;99775.22;5137958;27;20053;-36
2022/04/01 03:02:52;;;;;;;0.20;0.20;;;;;;;20.03;36.39;99772.44;5139580;27;20503;-36
2022/04/01 03:05:18;;;;;;;0.20;0.20;;;;;;;20.03;36.22;99776.06;5140795;27;20547;-34
2022/04/01 03:07:44;;;;;;;0.20;0.20;;;;;;;20.03;36.64;99780.75;5140031;27;20051;-34
2022/04/01 03:10:11;;;;;;;0.20;0.20;;;;;;;20.03;36.54;99776.06;5117500;27;20081;-36
2022/04/01 03:12:36;;;;;;;0.20;0.20;;;;;;;20.03;36.36;99780.75;5142099;27;20512;-34
2022/04/01 03:15:03;;;;;;;0.20;0.20;;;;;;;20.03;36.54;99780.75;5119468;28;20050;-35
2022/04/01 03:17:29;;;;;;;0.20;0.20;;;;;;;20.02;36.30;99781.88;5138070;27;20526;-37
2022/04/01 03:19:55;;;;;;;0.20;0.20;;;;;;;20.02;36.44;99788.22;5135818;27;20071;-36
2022/04/01 03:22:21;;;;;;;0.20;0.20;;;;;;;20.02;36.53;99781.88;5140622;27;20408;-33
2022/04/01 03:24:46;;;;;;;0.20;0.20;;;;;;;20.01;36.54;99794.06;5144035;27;20091;-35
2022/04/01 03:27:13;;;;;;;0.20;0.20;;;;;;;20.00;36.46;99798.78;5126300;27;20051;-33
2022/04/01 03:29:38;;;;;;;0.20;0.20;;;;;;;20.01;36.60;99797.66;5120391;27;20505;-34
2022/04/01 03:32:04;;;;;;;0.20;0.20;;;;;;;20.01;36.69;99807.88;5138253;27;20058;-35
2022/04/01 03:34:32;;;;;;;0.20;0.20;;;;;;;20.01;36.28;99814.22;5138173;27;20043;-33
2022/04/01 03:36:57;;;;;;;0.20;0.20;;;;;;;20.00;36.25;99809.84;5138667;27;20099;-35
2022/04/01 03:39:25;;;;;;;0.20;0.20;;;;;;;20.01;36.61;99821.72;5135975;27;20316;-35
2022/04/01 03:41:51;;;;;;;0.20;0.20;;;;;;;20.00;36.53;99814.56;5120764;27;20078;-35
2022/04/01 03:44:17;;;;;;;0.20;0.20;;;;;;;20.00;36.27;99823.66;5124963;27;20078;-34
2022/04/01 03:46:48;;;;;;;0.20;0.20;;;;;;;20.00;36.31;99822.84;5138385;27;21336;-32
2022/04/01 03:49:22;;;;;;;0.20;0.20;;;;;;;20.00;36.42;99831.13;5146219;27;20473;-34
2022/04/01 03:51:49;;;;;;;0.20;0.20;;;;;;;19.99;36.49;99824.78;5146425;27;20287;-37
2022/04/01 03:54:16;;;;;;;0.20;0.20;;;;;;;19.99;36.20;99830.31;5140375;27;20066;-37
2022/04/01 03:56:45;;;;;;;0.20;0.20;;;;;;;19.98;36.34;99836.97;5140351;27;20079;-33
2022/04/01 03:59:12;;;;;;;0.20;0.20;;;;;;;19.99;36.38;99835.00;5119452;27;20082;-34
2022/04/01 04:01:38;;;;;;;0.20;0.20;;;;;;;19.99;36.39;99835.84;5126603;27;20074;-35
2022/04/01 04:04:07;;;;;;;0.20;0.20;;;;;;;19.99;36.55;99843.28;5125049;27;20091;-35
2022/04/01 04:06:34;;;;;;;0.20;0.20;;;;;;;19.98;36.56;99856.28;5142520;27;20095;-34
2022/04/01 04:09:02;;;;;;;0.20;0.20;;;;;;;19.98;36.63;99850.78;5135797;27;20074;-35
2022/04/01 04:11:28;;;;;;;0.20;0.20;;;;;;;19.99;36.54;99859.88;5111955;27;20070;-35
2022/04/01 04:13:55;;;;;;;0.20;0.20;;;;;;;19.99;36.47;99859.88;5118401;27;20757;-37
2022/04/01 04:16:45;;;;;;;0.20;0.20;;;;;;;19.98;36.40;99858.25;5120418;27;20070;-37
2022/04/01 04:22:11;;;;;;;0.20;0.20;;;;;;;19.97;36.32;99862.16;5171944;27;20152;-31
2022/04/01 04:24:43;;;;;;;0.20;0.20;;;;;;;19.96;36.38;99866.88;5136273;27;20409;-33
2022/04/01 04:27:11;;;;;;;0.20;0.20;;;;;;;19.97;36.41;99862.16;5143306;27;20522;-33
2022/04/01 04:29:48;;;;;;;0.20;0.20;;;;;;;19.96;36.38;99866.88;5160297;27;20085;-31
2022/04/01 04:34:59;;;;;;;0.20;0.20;;;;;;;19.95;36.35;99868.00;5182723;27;20204;-33
2022/04/01 04:37:27;;;;;;;0.20;0.20;;;;;;;19.95;36.51;99881.81;5166824;27;20074;-33
2022/04/01 04:39:53;;;;;;;0.20;0.20;;;;;;;19.96;36.43;99883.44;5162025;27;20078;-31
2022/04/01 04:42:19;;;;;;;0.20;0.20;;;;;;;19.95;36.55;99884.56;5144444;27;20520;-34
2022/04/01 04:44:45;;;;;;;0.20;0.20;;;;;;;19.96;36.35;99885.38;5163392;27;20043;-32
2022/04/01 04:47:11;;;;;;;0.20;0.20;;;;;;;19.95;36.80;99887.34;5164922;27;20142;-32
2022/04/01 04:49:41;;;;;;;0.20;0.20;;;;;;;19.95;36.65;99884.56;5146474;27;20050;-31
2022/04/01 04:52:08;;;;;;;0.20;0.20;;;;;;;19.94;36.58;99885.69;5145207;27;20089;-33
2022/04/01 04:54:38;;;;;;;0.20;0.20;;;;;;;19.94;36.69;99893.97;5167131;27;20085;-32
2022/04/01 04:57:06;;;;;;;0.20;0.20;;;;;;;19.94;36.35;99893.16;5147852;27;20122;-34
2022/04/01 04:59:34;;;;;;;0.22;0.22;;;;;;;19.94;36.43;99899.50;5163410;27;20070;-33
2022/04/01 05:02:10;;;;;;;0.20;0.20;;;;;;;19.94;36.67;99904.22;5165882;27;20154;-31
2022/04/01 05:05:05;;;;;;;0.20;0.20;;;;;;;19.94;36.42;99909.75;5162239;27;20059;-31
2022/04/01 05:08:08;;;;;;;0.20;0.20;;;;;;;19.93;36.40;99917.22;5147035;27;20074;-32
2022/04/01 05:10:42;;;;;;;0.20;0.20;;;;;;;19.93;36.57;99913.63;5145739;27;20045;-33
2022/04/01 05:13:13;;;;;;;0.20;0.20;;;;;;;19.93;36.35;99922.75;5164962;27;20038;-33
2022/04/01 05:15:40;;;;;;;0.20;0.20;;;;;;;19.93;36.36;99922.75;5164408;27;20176;-32
2022/04/01 05:18:12;;;;;;;0.20;0.20;;;;;;;19.94;36.49;99929.09;5147575;27;20080;-33
2022/04/01 05:20:47;;;;;;;0.20;0.20;;;;;;;19.93;36.25;99925.50;5146281;27;20412;-33
2022/04/01 05:23:25;;;;;;;0.20;0.20;;;;;;;19.93;36.36;99939.31;5147144;27;20090;-32
2022/04/01 05:26:10;;;;;;;0.20;0.20;;;;;;;19.92;36.09;99937.69;5148342;27;20089;-31
2022/04/01 05:28:40;;;;;;;0.20;0.20;;;;;;;19.93;36.01;99941.28;5145534;27;20070;-32
2022/04/01 05:31:20;;;;;;;0.20;0.20;;;;;;;19.92;36.16;99943.22;5155843;27;20113;-33
2022/04/01 05:33:56;;;;;;;0.20;0.20;;;;;;;19.92;36.28;99951.50;5158254;27;20477;-32
2022/04/01 05:36:23;;;;;;;0.20;0.20;;;;;;;19.76;35.59;99951.00;5136110;27;20065;-33
2022/04/01 05:38:49;;;;;;;0.20;0.20;;;;;;;19.89;36.17;99956.81;5114631;27;20146;-34
2022/04/01 05:41:19;;;;;;;0.20;0.20;;;;;;;19.95;35.90;99961.94;5100644;27;20212;-34
2022/04/01 05:43:47;;;;;;;0.20;0.20;;;;;;;19.93;36.21;99961.44;5117411;27;20134;-35
2022/04/01 05:46:15;;;;;;;0.20;0.20;;;;;;;19.94;36.41;99976.88;5118758;27;20071;-33
2022/04/01 05:48:41;;;;;;;0.20;0.20;;;;;;;19.94;36.25;99974.09;5105949;27;20083;-34
2022/04/01 05:51:07;;;;;;;0.20;0.20;;;;;;;19.94;36.19;99982.41;5095772;27;20652;-35
2022/04/01 05:53:34;;;;;;;0.20;0.20;;;;;;;19.95;36.49;99988.78;5091443;28;20050;-35
2022/04/01 05:56:00;;;;;;;0.20;0.20;;;;;;;19.96;36.16;99990.41;5112597;27;20158;-35
2022/04/01 05:58:26;;;;;;;0.20;0.20;;;;;;;19.95;36.49;99988.78;5115052;27;20044;-34
2022/04/01 06:01:10;;;;;;;0.20;0.20;;;;;;;19.96;36.25;99995.94;5117835;27;20050;-34
2022/04/01 06:04:16;;;;;;;0.20;0.20;;;;;;;19.96;36.32;100004.22;5088548;28;20474;-35
2022/04/01 06:06:43;;;;;;;0.20;0.20;;;;;;;19.96;36.23;100005.03;5103974;28;20077;-34
2022/04/01 06:09:49;;;;;;;0.20;0.20;;;;;;;19.98;36.51;100011.06;5112415;27;20090;-35
2022/04/01 06:12:38;;;;;;;0.20;0.20;;;;;;;19.98;36.32;100011.06;5095329;27;20537;-34
2022/04/01 06:15:14;;;;;;;0.20;0.20;;;;;;;19.99;36.46;100023.78;5105608;28;20138;-37
2022/04/01 06:18:19;;;;;;;0.20;0.20;;;;;;;20.00;36.24;100025.41;5111545;28;20102;-34
2022/04/01 06:20:47;;;;;;;0.20;0.20;;;;;;;20.01;36.46;100023.44;5103512;27;20141;-34
2022/04/01 06:23:52;;;;;;;0.20;0.20;;;;;;;20.01;36.53;100028.97;5079701;27;20130;-36
2022/04/01 06:26:19;;;;;;;0.20;0.20;;;;;;;20.02;36.46;100028.66;5103932;27;20055;-39
2022/04/01 06:29:24;;;;;;;0.20;0.20;;;;;;;20.03;36.22;100026.72;5110063;27;20138;-35
2022/04/01 06:32:01;;;;;;;0.20;0.20;;;;;;;20.02;36.10;100039.72;5094986;27;20134;-36
2022/04/01 06:34:40;;;;;;;0.20;0.20;;;;;;;20.04;36.45;100036.66;5093433;27;20130;-33
2022/04/01 06:37:12;;;;;;;0.20;0.20;;;;;;;20.04;36.09;100040.25;5104070;28;20079;-35
2022/04/01 06:39:46;;;;;;;0.20;0.20;;;;;;;20.05;36.29;100041.88;5097696;28;20149;-38
2022/04/01 06:42:19;;;;;;;0.20;0.20;;;;;;;20.06;36.01;100048.22;5117456;27;20213;-34
2022/04/01 06:44:46;;;;;;;0.20;0.20;;;;;;;20.06;36.36;100056.50;5117319;27;20078;-34
2022/04/01 06:47:12;;;;;;;0.20;0.20;;;;;;;20.08;36.38;100067.25;5092918;28;20078;-33
2022/04/01 06:49:41;;;;;;;0.20;0.20;;;;;;;20.07;36.42;100063.66;5096303;27;21558;-34
2022/04/01 06:52:07;;;;;;;0.20;0.20;;;;;;;20.08;36.34;100064.47;5100467;28;20120;-33
2022/04/01 06:54:33;;;;;;;0.20;0.20;;;;;;;20.08;36.09;100070.84;5115796;27;21470;-38
2022/04/01 06:56:58;;;;;;;0.20;0.20;;;;;;;20.09;36.17;100072.50;5088081;28;20083;-35
2022/04/01 06:59:24;;;;;;;0.20;0.20;;;;;;;20.08;36.09;100078.31;5103901;27;20051;-35
2022/04/01 07:01:50;;;;;;;0.20;0.20;;;;;;;20.09;36.10;100074.44;5107326;27;20206;-37
2022/04/01 07:04:16;;;;;;;0.20;0.20;;;;;;;20.08;36.06;100081.91;5106775;27;20054;-34
2022/04/01 07:06:41;;;;;;;0.20;0.20;;;;;;;20.08;36.17;100065.31;5114843;27;20474;-34
2022/04/01 07:09:07;;;;;;;0.20;0.20;;;;;;;20.08;36.24;100070.84;5103578;27;20058;-36
2022/04/01 07:11:34;;;;;;;0.20;0.20;;;;;;;20.08;36.06;100079.16;5117654;27;20489;-34
2022/04/01 07:14:00;;;;;;;0.20;0.20;;;;;;;20.08;35.85;100083.84;5089637;27;20700;-36
2022/04/01 07:16:26;;;;;;;0.20;0.20;;;;;;;20.08;35.98;100097.66;5101615;28;20462;-33
2022/04/01 07:18:51;;;;;;;0.20;0.20;;;;;;;20.08;35.98;100100.41;5106687;27;20056;-32
2022/04/01 07:21:17;;;;;;;0.20;0.20;;;;;;;19.72;28.48;100101.09;5100856;27;20521;-40
2022/04/01 07:23:43;;;;;;;0.20;0.20;;;;;;;19.54;28.18;100105.53;5106575;27;20126;-38
2022/04/01 07:26:09;;;;;;;0.20;0.20;;;;;;;19.40;29.21;100101.94;5107712;27;20051;-38
2022/04/01 07:28:35;;;;;;;0.20;0.20;;;;;;;19.29;28.92;100101.25;5117395;27;20067;-38
2022/04/01 07:34:22;;;;;;;0.20;0.20;;;;;;;19.69;32.07;100110.00;5093478;27;20451;-33
2022/04/01 07:36:48;;;;;;;0.20;0.20;;;;;;;19.77;32.38;100114.81;5109821;27;20051;-32
2022/04/01 07:39:15;;;;;;;0.20;0.20;;;;;;;19.82;32.26;100123.03;5105431;27;20044;-33
2022/04/01 07:41:41;;;;;;;0.20;0.20;;;;;;;19.87;32.60;100124.88;5115824;27;20159;-36
2022/04/01 07:44:07;;;;;;;0.20;0.20;;;;;;;19.90;33.05;100130.59;5114481;27;20039;-33
2022/04/01 07:46:33;;;;;;;0.30;0.30;;;;;;;19.92;33.13;100124.78;5112273;28;20092;-38
2022/04/01 07:48:59;;;;;;;0.20;0.20;;;;;;;19.95;33.02;100132.47;5111414;27;20209;-35
2022/04/01 07:51:25;;;;;;;0.20;0.20;;;;;;;19.97;33.29;100139.31;5107889;27;20051;-33
2022/04/01 07:53:50;;;;;;;0.45;0.40;;;;;;;19.99;33.33;100144.53;5111741;27;20048;-32
2022/04/01 07:56:16;;;;;;;0.20;0.20;;;;;;;20.01;33.48;100151.41;5114713;27;20043;-35
2022/04/01 07:58:42;;;;;;;0.20;0.20;;;;;;;20.01;33.71;100148.63;5110807;27;20482;-34
2022/04/01 08:01:07;;;;;;;0.20;0.20;;;;;;;20.03;33.43;100146.41;5095807;28;20047;-34
2022/04/01 08:03:33;;;;;;;0.20;0.20;;;;;;;20.04;33.59;100149.97;5112212;27;20047;-33
2022/04/01 08:05:59;;;;;;;0.20;0.20;;;;;;;20.05;33.92;100157.16;5110383;27;21243;-38
2022/04/01 08:08:25;;;;;;;0.20;0.20;;;;;;;20.06;33.87;100164.31;5108673;27;20130;-37
2022/04/01 08:10:51;;;;;;;0.25;0.25;;;;;;;20.05;33.78;100166.25;5113443;27;20057;-33
2022/04/01 08:13:17;;;;;;;0.20;0.20;;;;;;;20.06;34.14;100169.84;5117875;27;20139;-37
2022/04/01 08:15:43;;;;;;;0.20;0.20;;;;;;;20.06;33.79;100172.59;5109941;27;20138;-34
2022/04/01 08:18:09;;;;;;;0.20;0.20;;;;;;;20.08;34.07;100175.03;5092497;28;20047;-33
2022/04/01 08:20:35;;;;;;;0.30;0.30;;;;;;;19.80;32.86;100173.06;5106446;27;20058;-33
2022/04/01 08:23:02;;;;;;;0.20;0.20;;;;;;;20.02;33.72;100182.63;5076538;28;20078;-35
2022/04/01 08:25:27;;;;;;;0.20;0.20;;;;;;;20.10;33.58;100190.22;5113463;27;20383;-38
2022/04/01 08:28:02;;;;;;;0.20;0.20;;;;;;;20.13;33.55;100197.09;5113501;27;20554;-34
2022/04/01 08:30:28;;;;;;;0.20;0.20;;;;;;;20.15;33.91;100192.06;5114669;27;20043;-34
2022/04/01 08:32:54;;;;;;;0.30;0.30;;;;;;;20.15;33.97;100200.34;5109468;27;20525;-37
2022/04/01 08:35:19;;;;;;;0.20;0.20;;;;;;;20.16;33.72;100202.00;5100900;27;20043;-35
2022/04/01 08:37:45;;;;;;;0.20;0.20;;;;;;;20.18;34.12;100208.03;5106742;27;20654;-35
2022/04/01 08:40:11;;;;;;;0.20;0.20;;;;;;;20.18;34.02;100205.28;5104620;27;20104;-36
2022/04/01 08:42:37;;;;;;;0.20;0.20;;;;;;;20.19;34.20;100213.25;5112275;27;20036;-38
2022/04/01 08:45:07;;;;;;;0.20;0.20;;;;;;;20.21;33.93;100212.97;5117560;27;20051;-33
2022/04/01 08:47:35;;;;;;;0.20;0.20;;;;;;;20.20;34.08;100220.41;5117029;28;20086;-36
2022/04/01 08:50:01;;;;;;;0.20;0.20;;;;;;;20.21;34.18;100224.84;5113577;27;20079;-35
2022/04/01 08:52:27;;;;;;;0.20;0.20;;;;;;;20.22;34.33;100231.19;5108520;27;20043;-34
2022/04/01 08:54:52;;;;;;;0.20;0.20;;;;;;;20.24;34.14;100231.69;5116806;27;20459;-38
2022/04/01 08:57:18;;;;;;;0.20;0.20;;;;;;;20.24;34.18;100238.03;5111230;27;20055;-33
2022/04/01 08:59:44;;;;;;;0.20;0.20;;;;;;;20.24;34.01;100240.81;5093465;28;20047;-34
2022/04/01 09:02:10;;;;;;;0.20;0.20;;;;;;;20.25;34.07;100241.63;5112318;27;20047;-38
2022/04/01 09:04:36;;;;;;;0.30;0.30;;;;;;;20.25;34.13;100252.69;5118611;27;20126;-34
2022/04/01 09:07:11;;;;;;;0.20;0.20;;;;;;;20.26;34.23;100249.63;5105922;27;20061;-35
2022/04/01 09:09:37;;;;;;;0.20;0.20;;;;;;;20.28;34.36;100249.31;5103543;27;20458;-32
2022/04/01 09:12:12;;;;;;;0.20;0.20;;;;;;;20.27;34.10;100250.44;5097987;28;20067;-36
2022/04/01 09:14:39;;;;;;;0.20;0.20;;;;;;;20.29;34.08;100256.47;5098104;28;20054;-34
2022/04/01 09:17:05;;;;;;;0.20;0.20;;;;;;;20.28;34.34;100249.31;5096867;28;20579;-33
2022/04/01 09:19:34;;;;;;;0.20;0.20;;;;;;;20.29;34.05;100253.72;5098135;28;20394;-35
2022/04/01 09:22:22;;;;;;;0.20;0.20;;;;;;;20.32;34.28;100266.13;5084322;28;20047;-33
2022/04/01 09:24:57;;;;;;;0.20;0.20;;;;;;;20.31;34.02;100254.25;5098280;28;21206;-33
2022/04/01 09:27:41;;;;;;;0.20;0.20;;;;;;;20.32;34.35;100274.41;5118922;27;20504;-31
2022/04/01 09:30:09;;;;;;;0.20;0.20;;;;;;;20.32;34.30;100266.13;5114095;27;20402;-34
2022/04/01 09:32:36;;;;;;;;;;;;;;;20.32;34.40;100271.66;5081971;27;20176;-32
2022/04/01 09:35:02;;;;;;;0.20;0.20;;;;;;;20.33;34.43;100276.06;5109958;27;20255;-33
2022/04/01 09:37:45;;;;;;;0.20;0.20;;;;;;;20.31;34.18;100273.59;5107080;28;20039;-36
2022/04/01 09:40:13;;;;;;;0.20;0.20;;;;;;;20.32;34.06;100283.53;5080124;28;20122;-33
2022/04/01 09:42:39;;;;;;;;;;;;;;;20.31;34.29;100281.91;5094272;28;20119;-34
2022/04/01 09:45:06;;;;;;;0.20;0.20;;;;;;;20.32;34.31;100271.66;5085816;28;19934;-33
2022/04/01 09:47:35;;;;;;;0.20;0.20;;;;;;;20.31;34.22;100281.91;5088334;28;20134;-34
2022/04/01 09:50:04;;;;;;;0.20;0.20;;;;;;;20.30;34.33;100289.38;5109887;27;20135;-37
2022/04/01 09:52:36;;;;;;;0.20;0.20;;;;;;;20.31;34.47;100281.91;5117009;27;20542;-37
2022/04/01 09:55:02;;;;;;;0.20;0.20;;;;;;;20.30;34.53;100291.34;5122779;27;20125;-32
2022/04/01 09:57:28;;;;;;;0.20;0.20;;;;;;;20.29;34.53;100287.75;5110885;28;20139;-32
2022/04/01 09:59:54;;;;;;;0.20;0.20;;;;;;;20.30;34.37;100288.56;5112464;27;20063;-37
2022/04/01 10:02:20;;;;;;;0.20;0.20;;;;;;;20.30;34.58;100297.69;5101060;27;20333;-33
2022/04/01 10:04:46;;;;;;;0.20;0.20;;;;;;;20.30;34.70;100289.38;5091014;28;20409;-33
2022/04/01 10:07:12;;;;;;;0.20;0.20;;;;;;;20.31;34.45;100298.50;5107146;27;20543;-34
2022/04/01 10:09:39;;;;;;;0.20;0.20;;;;;;;20.35;34.51;100298.72;5107060;27;20048;-33
2022/04/01 10:12:26;;;;;;;0.20;0.20;;;;;;;20.34;34.60;100303.44;5099274;28;20047;-33
2022/04/01 10:14:56;;;;;;;0.20;0.20;;;;;;;20.31;34.52;100298.50;5116356;27;20080;-35
2022/04/01 10:17:27;;;;;;;0.20;0.20;;;;;;;20.24;34.07;100309.94;5093858;27;20040;-32
2022/04/01 10:19:53;;;;;;;0.20;0.20;;;;;;;20.34;34.39;100310.91;5112000;28;20187;-41
2022/04/01 10:22:19;;;;;;;0.20;0.20;;;;;;;20.21;34.32;100301.44;5107440;27;20553;-36
2022/04/01 10:25:21;;;;;;;0.20;0.20;;;;;;;20.29;34.36;100307.09;5110398;27;20203;-34
2022/04/01 10:27:48;;;;;;;0.20;0.20;;;;;;;20.31;33.94;100312.31;5107956;28;20130;-32
2022/04/01 10:30:18;;;;;;;0.20;0.20;;;;;;;20.32;34.47;100315.91;5110087;27;20043;-34
2022/04/01 10:32:46;;;;;;;0.20;0.20;;;;;;;20.32;34.20;100322.25;5118407;27;20098;-35
2022/04/01 10:35:31;;;;;;;0.20;0.20;;;;;;;20.29;31.68;100326.47;5088613;28;20138;-39
2022/04/01 10:38:16;;;;;;;0.20;0.20;;;;;;;20.19;33.20;100317.50;5097541;28;20043;-34
2022/04/01 10:40:45;;;;;;;0.20;0.20;;;;;;;20.19;33.37;100320.25;5095244;28;20051;-34
2022/04/01 10:43:31;;;;;;;0.20;0.20;;;;;;;20.29;33.45;100318.16;5097845;28;20691;-34
2022/04/01 10:46:06;;;;;;;0.20;0.20;;;;;;;20.35;33.52;100329.13;5100912;27;20207;-33
2022/04/01 10:51:41;;;;;;;0.20;0.20;;;;;;;20.37;33.70;100326.88;5097010;28;20122;-34
2022/04/01 10:56:57;;;;;;;0.20;0.20;;;;;;;20.37;33.94;100330.44;5168890;27;21737;-38
2022/04/01 10:59:24;;;;;;;0.20;0.20;;;;;;;20.39;33.77;100327.41;5144574;27;20134;-37
2022/04/01 11:02:04;;;;;;;0.20;0.20;;;;;;;20.40;33.53;100334.56;5113438;27;20188;-43
2022/04/01 11:04:33;;;;;;;0.20;0.20;;;;;;;20.37;33.01;100324.09;5149016;27;20035;-35
2022/04/01 11:07:01;;;;;;;0.20;0.20;;;;;;;20.41;33.74;100328.72;5133971;27;20885;-34
2022/04/01 11:20:14;;;;;;;0.20;0.20;;;;;;;20.52;33.76;100334.94;5097363;27;20226;-32
2022/04/01 11:22:43;;;;;;;0.20;0.20;;;;;;;20.59;33.83;100337.28;5074902;28;20524;-37
2022/04/01 11:28:14;;;;;;;0.20;0.20;;;;;;;20.58;33.96;100341.19;5106329;27;20126;-37
2022/04/01 11:33:19;;;;;;;0.20;0.20;;;;;;;20.59;34.09;100353.91;5152932;27;20532;-36
2022/04/01 11:35:48;;;;;;;0.20;0.20;;;;;;;20.59;33.79;100351.94;5148970;27;20560;-35
2022/04/01 11:38:16;;;;;;;0.20;0.20;;;;;;;20.59;33.91;100342.81;5124159;27;20513;-37
2022/04/01 11:40:43;;;;;;;0.20;0.20;;;;;;;20.59;33.49;100346.41;5120826;27;20047;-34
2022/04/01 11:43:11;;;;;;;0.20;0.20;;;;;;;20.60;33.84;100353.59;5125176;27;20137;-37
2022/04/01 11:45:39;;;;;;;0.20;0.20;;;;;;;20.60;33.50;100353.59;5105589;27;20126;-34
2022/04/01 11:48:28;;;;;;;0.20;0.20;;;;;;;20.61;33.81;100351.66;5133621;27;20122;-35
2022/04/01 11:51:08;;;;;;;0.20;0.20;;;;;;;20.60;33.51;100361.09;5118830;27;20491;-36
2022/04/01 11:53:37;;;;;;;0.20;0.20;;;;;;;20.60;33.48;100364.69;5133551;27;20089;-36
2022/04/01 11:56:06;;;;;;;0.20;0.20;;;;;;;20.62;33.37;100361.59;5116974;27;20474;-38
2022/04/01 11:58:36;;;;;;;0.20;0.20;;;;;;;20.61;33.61;100363.53;5133126;27;20091;-33
2022/04/01 12:01:02;;;;;;;0.20;0.20;;;;;;;20.62;33.38;100370.72;5130907;27;21132;-32
2022/04/01 12:03:31;;;;;;;0.20;0.20;;;;;;;20.63;33.37;100369.56;5117187;27;20035;-38
2022/04/01 12:08:41;;;;;;;0.20;0.20;;;;;;;20.64;33.72;100370.41;5129186;27;20050;-33
2022/04/01 12:08:45;;;;;;;0.20;0.20;;;;;;;20.63;33.67;100375.09;5127334;27;20496;-33
2022/04/01 12:11:11;;;;;;;0.20;0.20;;;;;;;20.64;33.56;100374.00;5117523;27;20150;-33
2022/04/01 12:13:42;;;;;;;0.20;0.20;;;;;;;20.64;33.70;100374.00;5111794;27;20484;-35
2022/04/01 12:16:08;;;;;;;0.20;0.20;;;;;;;20.65;33.67;100372.88;5112168;27;20135;-33